createdAt,value
2023-02-03T00:00:09.058Z,5.48
2023-02-03T00:02:38.892Z,5.18
2023-02-03T00:05:07.491Z,4.65
2023-02-03T00:07:37.696Z,5.36
2023-02-03T00:10:07.691Z,5.19
2023-02-03T00:12:36.235Z,4.83
2023-02-03T00:15:09.011Z,5.25
2023-02-03T00:17:38.859Z,5.25
2023-02-03T00:20:07.087Z,5.21
2023-02-03T00:22:35.257Z,5.60
2023-02-03T00:25:03.753Z,5.19
2023-02-03T00:27:32.023Z,5.49
2023-02-03T00:29:59.550Z,5.35
2023-02-03T00:32:27.777Z,5.30
2023-02-03T00:34:55.537Z,5.63
2023-02-03T00:37:23.613Z,5.45
2023-02-03T00:39:51.764Z,5.35
2023-02-03T00:42:19.539Z,5.55
2023-02-03T00:44:47.251Z,6.03
2023-02-03T00:47:15.254Z,5.65
2023-02-03T00:49:42.835Z,4.76
2023-02-03T00:52:10.684Z,5.08
2023-02-03T00:54:39.013Z,5.09
2023-02-03T00:57:06.745Z,5.36
2023-02-03T00:59:34.824Z,5.19
2023-02-03T01:02:05.241Z,5.28
2023-02-03T01:04:32.937Z,5.23
2023-02-03T01:07:01.340Z,5.39
2023-02-03T01:09:29.693Z,5.33
2023-02-03T01:11:59.670Z,5.58
2023-02-03T01:14:27.327Z,5.57
2023-02-03T01:16:56.250Z,5.31
2023-02-03T01:19:25.091Z,4.99
2023-02-03T01:21:52.508Z,5.15
2023-02-03T01:24:20.640Z,5.12
2023-02-03T01:26:49.303Z,5.05
2023-02-03T01:29:16.870Z,5.00
2023-02-03T01:31:45.059Z,5.03
2023-02-03T01:34:16.504Z,4.83
2023-02-03T01:36:44.745Z,5.08
2023-02-03T01:39:12.660Z,5.22
2023-02-03T01:41:41.337Z,5.01
2023-02-03T01:44:52.391Z,4.85
2023-02-03T01:47:29.436Z,4.99
2023-02-03T01:50:12.124Z,5.10
2023-02-03T01:52:42.426Z,5.24
2023-02-03T01:55:14.493Z,5.07
2023-02-03T01:58:13.735Z,4.88
2023-02-03T02:00:43.795Z,5.02
2023-02-03T02:03:13.241Z,5.17
2023-02-03T02:05:54.912Z,5.28
2023-02-03T02:08:23.904Z,5.16
2023-02-03T02:10:52.713Z,5.23
2023-02-03T02:13:20.710Z,5.15
2023-02-03T02:16:11.133Z,5.18
2023-02-03T02:18:55.030Z,5.22
2023-02-03T02:21:42.200Z,5.05
2023-02-03T02:24:34.805Z,4.95
2023-02-03T02:27:11.959Z,4.90
2023-02-03T02:30:04.636Z,4.79
2023-02-03T02:32:44.945Z,4.94
2023-02-03T02:35:28.113Z,4.85
2023-02-03T02:38:07.929Z,4.82
2023-02-03T02:40:53.148Z,4.79
2023-02-03T02:43:28.615Z,4.70
2023-02-03T02:46:02.589Z,4.51
2023-02-03T02:48:36.915Z,4.84
2023-02-03T02:51:05.623Z,5.10
2023-02-03T02:53:39.931Z,4.97
2023-02-03T02:56:11.743Z,5.01
2023-02-03T02:58:41.397Z,5.28
2023-02-03T03:01:09.946Z,4.94
2023-02-03T03:03:42.870Z,4.85
2023-02-03T03:06:22.808Z,4.79
2023-02-03T03:09:05.290Z,4.60
2023-02-03T03:11:38.263Z,4.65
2023-02-03T03:14:06.676Z,4.75
2023-02-03T03:16:37.896Z,4.76
2023-02-03T03:19:09.366Z,4.69
2023-02-03T03:21:44.293Z,4.50
2023-02-03T03:24:17.349Z,4.44
2023-02-03T03:26:52.317Z,4.48
2023-02-03T03:29:35.344Z,4.23
2023-02-03T03:32:03.453Z,3.89
2023-02-03T03:34:31.907Z,4.19
2023-02-03T03:37:04.346Z,4.02
2023-02-03T03:39:41.787Z,3.83
2023-02-03T03:42:34.927Z,3.90
2023-02-03T03:45:03.046Z,3.62
2023-02-03T03:47:37.068Z,3.73
2023-02-03T03:50:08.664Z,3.56
2023-02-03T03:52:36.992Z,3.75
2023-02-03T03:55:08.689Z,3.53
2023-02-03T03:57:45.643Z,3.71
2023-02-03T04:00:18.491Z,3.97
2023-02-03T04:02:51.578Z,3.56
2023-02-03T04:05:20.497Z,3.64
2023-02-03T04:07:49.871Z,3.71
2023-02-03T04:10:34.417Z,3.62
2023-02-03T04:13:04.270Z,3.59
2023-02-03T04:15:33.745Z,3.66
2023-02-03T04:18:04.196Z,3.90
2023-02-03T04:20:33.590Z,4.17
2023-02-03T04:23:02.507Z,4.16
2023-02-03T04:25:31.260Z,3.95
2023-02-03T04:30:34.238Z,3.80
2023-02-03T04:33:05.431Z,4.10
2023-02-03T04:35:33.436Z,4.40
2023-02-03T04:38:01.180Z,4.65
2023-02-03T04:40:29.589Z,4.66
2023-02-03T04:42:57.311Z,4.04
2023-02-03T04:45:24.868Z,3.68
2023-02-03T04:47:54.610Z,4.09
2023-02-03T04:50:23.036Z,3.95
2023-02-03T04:52:50.547Z,4.16
2023-02-03T04:55:19.881Z,4.06
2023-02-03T04:57:47.674Z,3.59
2023-02-03T05:00:16.293Z,3.95
2023-02-03T05:02:46.445Z,4.19
2023-02-03T05:05:14.886Z,3.80
2023-02-03T05:07:44.479Z,3.76
2023-02-03T05:10:21.808Z,3.93
2023-02-03T05:12:54.201Z,4.12
2023-02-03T05:15:22.463Z,4.10
2023-02-03T05:17:53.996Z,4.37
2023-02-03T05:20:22.645Z,4.23
2023-02-03T05:22:51.698Z,4.19
2023-02-03T05:25:19.935Z,3.99
2023-02-03T05:27:52.089Z,3.88
2023-02-03T05:30:23.324Z,4.06
2023-02-03T05:32:53.391Z,4.37
2023-02-03T05:35:23.139Z,4.31
2023-02-03T05:37:53.501Z,4.27
2023-02-03T05:40:42.886Z,4.23
2023-02-03T05:43:12.933Z,4.45
2023-02-03T05:45:44.487Z,4.71
2023-02-03T05:48:13.583Z,4.65
2023-02-03T05:50:43.450Z,4.79
2023-02-03T05:53:13.151Z,4.66
2023-02-03T05:55:41.565Z,4.36
2023-02-03T05:58:10.736Z,4.59
2023-02-03T06:00:43.845Z,4.43
2023-02-03T06:03:15.811Z,4.89
2023-02-03T06:05:50.031Z,4.88
2023-02-03T06:08:19.298Z,4.78
2023-02-03T06:11:00.142Z,4.89
2023-02-03T06:13:37.887Z,4.47
2023-02-03T06:16:08.638Z,4.38
2023-02-03T06:18:37.911Z,4.25
2023-02-03T06:21:07.485Z,4.28
2023-02-03T06:23:40.090Z,4.62
2023-02-03T06:26:08.979Z,4.58
2023-02-03T06:28:40.844Z,4.55
2023-02-03T06:31:10.213Z,4.50
2023-02-03T06:33:40.219Z,4.62
2023-02-03T06:36:11.134Z,4.58
2023-02-03T06:38:41.138Z,4.61
2023-02-03T06:41:14.408Z,4.49
2023-02-03T06:43:47.804Z,4.61
2023-02-03T06:46:20.011Z,4.68
2023-02-03T06:48:53.537Z,4.66
2023-02-03T06:51:26.754Z,4.61
2023-02-03T06:53:58.722Z,4.68
2023-02-03T06:56:28.277Z,4.47
2023-02-03T06:58:58.773Z,4.48
2023-02-03T07:01:34.709Z,4.44
2023-02-03T07:04:04.962Z,4.44
2023-02-03T07:06:46.171Z,4.69
2023-02-03T07:09:14.963Z,4.62
2023-02-03T07:11:42.783Z,4.64
2023-02-03T07:14:12.091Z,4.72
2023-02-03T07:16:45.262Z,4.80
2023-02-03T07:19:14.316Z,4.87
2023-02-03T07:21:44.746Z,4.62
2023-02-03T07:24:12.927Z,4.88
2023-02-03T07:26:41.132Z,5.13
2023-02-03T07:29:14.845Z,5.12
2023-02-03T07:31:46.994Z,5.20
2023-02-03T07:34:21.417Z,5.12
2023-02-03T07:37:01.777Z,5.18
2023-02-03T07:39:34.326Z,5.21
2023-02-03T07:42:02.561Z,5.24
2023-02-03T07:44:37.841Z,5.33
2023-02-03T07:47:10.500Z,5.45
2023-02-03T07:49:39.844Z,5.26
2023-02-03T07:52:10.035Z,5.35
2023-02-03T07:57:17.777Z,5.30
2023-02-03T07:59:47.905Z,5.14
2023-02-03T08:02:17.902Z,5.28
2023-02-03T08:04:48.342Z,5.26
2023-02-03T08:07:33.966Z,5.32
2023-02-03T08:10:08.604Z,5.36
2023-02-03T08:12:37.743Z,5.34
2023-02-03T08:15:08.769Z,5.17
2023-02-03T08:17:41.809Z,5.45
2023-02-03T08:22:52.159Z,5.52
2023-02-03T08:25:22.647Z,5.59
2023-02-03T08:27:52.119Z,5.58
2023-02-03T08:30:26.031Z,5.65
2023-02-03T08:32:57.144Z,5.69
2023-02-03T08:35:26.187Z,5.67
2023-02-03T08:37:55.075Z,5.76
2023-02-03T08:40:23.959Z,5.78
2023-02-03T08:42:53.902Z,5.89
2023-02-03T08:45:22.450Z,5.85
2023-02-03T08:47:54.695Z,5.92
2023-02-03T08:50:31.770Z,5.92
2023-02-03T08:53:01.464Z,5.73
2023-02-03T08:55:32.421Z,5.57
2023-02-03T08:58:03.295Z,5.43
2023-02-03T09:00:38.779Z,5.55
2023-02-03T09:05:55.726Z,5.76
2023-02-03T09:08:26.227Z,5.61
2023-02-03T09:10:56.353Z,5.55
2023-02-03T09:16:02.828Z,5.54
2023-02-03T09:18:33.663Z,5.37
2023-02-03T09:23:55.785Z,5.39
2023-02-03T09:26:24.247Z,5.37
2023-02-03T09:28:54.990Z,5.06
2023-02-03T09:31:40.212Z,5.21
2023-02-03T09:39:20.492Z,5.42
2023-02-03T09:42:07.922Z,5.22
2023-02-03T09:44:50.923Z,5.05
2023-02-03T09:47:27.635Z,5.15
2023-02-03T09:50:02.907Z,5.15
2023-02-03T09:52:36.061Z,4.93
2023-02-03T09:58:13.314Z,5.11
2023-02-03T10:00:46.038Z,5.09
2023-02-03T10:03:21.927Z,5.28
2023-02-03T10:08:54.934Z,4.86
2023-02-03T10:12:00.851Z,4.66
2023-02-03T10:14:54.064Z,4.65
2023-02-03T10:17:35.716Z,5.01
2023-02-03T10:20:10.735Z,5.01
2023-02-03T10:22:52.710Z,4.42
2023-02-03T10:25:38.772Z,4.65
2023-02-03T10:28:17.827Z,4.48
2023-02-03T10:31:07.505Z,4.63
2023-02-03T10:33:42.953Z,4.47
2023-02-03T10:36:24.831Z,4.22
2023-02-03T10:39:20.998Z,4.63
2023-02-03T10:41:57.906Z,4.66
2023-02-03T10:44:41.809Z,4.99
2023-02-03T10:47:34.891Z,4.57
2023-02-03T10:50:18.964Z,4.72
2023-02-03T10:52:49.733Z,4.54
2023-02-03T10:55:28.250Z,4.46
2023-02-03T10:57:58.159Z,4.70
2023-02-03T11:00:31.409Z,4.47
2023-02-03T11:03:06.177Z,4.45
2023-02-03T11:05:36.799Z,4.45
2023-02-03T11:08:16.122Z,4.75
2023-02-03T11:10:45.864Z,4.52
2023-02-03T11:13:26.867Z,4.68
2023-02-03T11:16:18.902Z,4.98
2023-02-03T11:21:46.928Z,4.30
2023-02-03T11:24:30.679Z,5.19
2023-02-03T11:27:07.877Z,4.60
2023-02-03T11:32:31.014Z,4.11
2023-02-03T11:35:02.979Z,4.14
2023-02-03T11:37:38.621Z,4.06
2023-02-03T11:40:33.989Z,3.96
2023-02-03T11:45:49.980Z,4.11
2023-02-03T11:48:27.726Z,3.64
2023-02-03T11:51:13.520Z,3.53
2023-02-03T11:53:57.164Z,3.57
2023-02-03T11:56:49.721Z,3.67
2023-02-03T12:03:04.717Z,3.70
2023-02-03T12:06:00.883Z,3.44
2023-02-03T12:08:56.988Z,3.87
2023-02-03T12:11:30.727Z,4.03
2023-02-03T12:14:14.701Z,3.78
2023-02-03T12:17:05.167Z,3.49
2023-02-03T12:19:53.170Z,3.54
2023-02-03T12:22:41.929Z,4.41
2023-02-03T12:25:39.209Z,4.47
2023-02-03T12:36:36.296Z,4.11
2023-02-03T12:44:45.670Z,4.52
2023-02-03T12:47:36.670Z,4.73
2023-02-03T12:50:16.762Z,5.03
2023-02-03T12:52:58.891Z,4.86
2023-02-03T12:55:43.122Z,4.34
2023-02-03T12:58:27.935Z,4.65
2023-02-03T13:01:20.080Z,4.38
2023-02-03T13:04:02.686Z,4.66
2023-02-03T13:06:33.022Z,4.49
2023-02-03T13:09:33.605Z,4.30
2023-02-03T13:12:21.712Z,4.55
2023-02-03T13:14:55.035Z,4.70
2023-02-03T13:17:42.116Z,3.99
2023-02-03T13:20:20.624Z,4.42
2023-02-03T13:22:55.467Z,4.74
2023-02-03T13:25:40.865Z,4.31
2023-02-03T13:28:21.769Z,3.92
2023-02-03T13:31:04.822Z,4.02
2023-02-03T13:33:52.997Z,3.76
2023-02-03T13:36:42.049Z,4.64
2023-02-03T13:39:36.712Z,4.34
2023-02-03T13:42:21.691Z,3.72
2023-02-03T13:44:57.996Z,3.82
2023-02-03T13:47:36.769Z,3.93
2023-02-03T13:50:28.883Z,4.15
2023-02-03T13:53:16.696Z,4.28
2023-02-03T13:58:39.540Z,4.55
2023-02-03T14:01:35.528Z,4.79
2023-02-03T14:04:10.035Z,5.16
2023-02-03T14:09:55.796Z,4.77
2023-02-03T14:12:41.647Z,4.54
2023-02-03T14:15:21.166Z,4.93
2023-02-03T14:18:32.006Z,5.01
2023-02-03T14:21:17.803Z,5.10
2023-02-03T14:24:01.208Z,5.13
2023-02-03T14:26:41.443Z,5.01
2023-02-03T14:29:26.676Z,4.61
2023-02-03T14:32:03.852Z,5.03
2023-02-03T14:34:35.649Z,4.75
2023-02-03T14:37:18.731Z,5.09
2023-02-03T14:42:31.730Z,5.16
2023-02-03T14:45:04.456Z,5.10
2023-02-03T14:48:15.806Z,5.19
2023-02-03T14:51:23.723Z,5.22
2023-02-03T14:54:10.837Z,4.82
2023-02-03T14:57:26.922Z,4.83
2023-02-03T15:00:08.025Z,5.23
2023-02-03T15:03:13.650Z,5.12
2023-02-03T15:05:59.661Z,5.08
2023-02-03T15:08:44.674Z,5.05
2023-02-03T15:11:27.889Z,5.11
2023-02-03T15:14:22.025Z,5.10
2023-02-03T15:16:58.686Z,5.27
2023-02-03T15:19:38.845Z,5.20
2023-02-03T15:22:22.353Z,5.25
2023-02-03T15:25:02.628Z,4.83
2023-02-03T15:27:42.911Z,5.22
2023-02-03T15:30:36.540Z,5.13
2023-02-03T15:33:17.869Z,5.29
2023-02-03T15:35:57.626Z,5.38
2023-02-03T15:38:45.579Z,6.04
2023-02-03T15:41:27.776Z,6.03
2023-02-03T15:44:02.815Z,6.19
2023-02-03T15:46:44.225Z,6.40
2023-02-03T15:54:54.756Z,6.61
2023-02-03T15:57:33.630Z,6.56
2023-02-03T16:05:34.620Z,6.62
2023-02-03T16:08:34.862Z,6.58
2023-02-03T16:11:24.547Z,6.37
2023-02-03T16:13:57.581Z,6.32
2023-02-03T16:16:36.831Z,6.38
2023-02-03T16:19:13.658Z,6.37
2023-02-03T16:21:55.523Z,6.52
2023-02-03T16:24:46.289Z,6.65
2023-02-03T16:27:26.265Z,6.53
2023-02-03T16:30:29.491Z,6.45
2023-02-03T16:33:29.794Z,6.72
2023-02-03T16:36:35.640Z,6.12
2023-02-03T16:39:30.597Z,5.95
2023-02-03T16:42:35.190Z,5.62
2023-02-03T16:45:36.888Z,5.96
2023-02-03T16:51:08.639Z,6.18
2023-02-03T16:53:40.593Z,6.07
2023-02-03T16:56:21.841Z,6.11
2023-02-03T16:58:59.735Z,6.29
2023-02-03T17:04:22.647Z,5.99
2023-02-03T17:06:51.734Z,6.38
2023-02-03T17:09:25.230Z,6.35
2023-02-03T17:11:59.688Z,6.28
2023-02-03T17:14:29.637Z,6.58
2023-02-03T17:19:51.665Z,6.60
2023-02-03T17:25:12.047Z,6.56
2023-02-03T17:27:52.756Z,6.59
2023-02-03T17:30:22.236Z,6.71
2023-02-03T17:33:12.413Z,6.53
2023-02-03T17:35:49.599Z,6.49
2023-02-03T17:38:24.120Z,6.33
2023-02-03T17:57:37.268Z,6.87
2023-02-03T18:00:10.676Z,6.60
2023-02-03T18:02:45.427Z,6.90
2023-02-03T18:05:22.582Z,6.61
2023-02-03T18:08:00.857Z,6.54
2023-02-03T18:10:40.779Z,6.71
2023-02-03T18:13:20.215Z,6.77
2023-02-03T18:16:00.339Z,7.08
2023-02-03T18:18:30.664Z,7.08
2023-02-03T18:21:03.863Z,7.20
2023-02-03T18:23:43.577Z,7.26
2023-02-03T18:26:22.717Z,7.27
2023-02-03T18:28:58.019Z,7.02
2023-02-03T18:31:33.121Z,7.14
2023-02-03T18:39:29.543Z,7.44
2023-02-03T18:41:59.601Z,7.20
2023-02-03T18:44:51.562Z,7.39
2023-02-03T18:47:20.544Z,7.38
2023-02-03T18:49:57.602Z,7.43
2023-02-03T18:52:35.592Z,7.36
2023-02-03T18:55:08.027Z,7.15
2023-02-03T18:57:41.811Z,7.19
2023-02-03T19:00:24.519Z,7.33
2023-02-03T19:02:57.239Z,7.49
2023-02-03T19:05:31.628Z,7.49
2023-02-03T19:11:01.626Z,7.01
2023-02-03T19:13:41.478Z,6.78
2023-02-03T19:16:14.201Z,6.70
2023-02-03T19:18:45.543Z,6.83
2023-02-03T19:21:21.745Z,7.12
2023-02-03T19:23:53.822Z,6.97
2023-02-03T19:26:32.036Z,6.68
2023-02-03T19:29:04.597Z,6.89
2023-02-03T19:31:43.945Z,6.78
2023-02-03T19:34:29.944Z,6.84
2023-02-03T19:39:51.948Z,6.82
2023-02-03T19:45:01.125Z,7.06
2023-02-03T19:47:31.783Z,6.96
2023-02-03T19:50:13.858Z,6.64
2023-02-03T19:52:55.713Z,6.76
2023-02-03T19:55:31.672Z,6.85
2023-02-03T19:58:08.776Z,6.71
2023-02-03T20:00:40.410Z,6.78
2023-02-03T20:03:20.566Z,6.74
2023-02-03T20:08:40.498Z,6.93
2023-02-03T20:11:14.227Z,6.66
2023-02-03T20:13:53.790Z,6.41
2023-02-03T20:16:32.183Z,6.86
2023-02-03T20:19:05.955Z,7.02
2023-02-03T20:21:37.236Z,7.10
2023-02-03T20:24:06.484Z,7.14
2023-02-03T20:26:42.821Z,6.87
2023-02-03T20:29:22.441Z,6.99
2023-02-03T20:31:55.991Z,6.90
2023-02-03T20:34:27.623Z,6.60
2023-02-03T20:37:14.014Z,7.17
2023-02-03T20:39:43.226Z,7.01
2023-02-03T20:42:23.915Z,7.30
2023-02-03T20:44:58.598Z,7.17
2023-02-03T20:52:58.713Z,7.44
2023-02-03T20:58:24.005Z,6.95
2023-02-03T21:01:02.732Z,6.79
2023-02-03T21:06:25.615Z,6.86
2023-02-03T21:09:16.509Z,6.93
2023-02-03T21:11:59.792Z,6.81
2023-02-03T21:14:42.618Z,6.69
2023-02-03T21:17:30.923Z,6.88
2023-02-03T21:20:07.560Z,6.92
2023-02-03T21:22:39.485Z,7.03
2023-02-03T21:25:28.355Z,7.01
2023-02-03T21:27:59.992Z,6.90
2023-02-03T21:30:35.622Z,6.81
2023-02-03T21:33:29.538Z,6.56
2023-02-03T21:35:58.787Z,6.56
2023-02-03T21:38:33.084Z,6.25
2023-02-03T21:41:03.139Z,6.21
2023-02-03T21:43:33.616Z,6.53
2023-02-03T21:46:18.142Z,6.36
2023-02-03T21:48:59.036Z,6.25
2023-02-03T21:51:31.542Z,6.52
2023-02-03T21:57:06.980Z,6.57
2023-02-03T21:59:42.599Z,6.62
2023-02-03T22:02:49.985Z,6.57
2023-02-03T22:07:56.543Z,6.17
2023-02-03T22:10:25.546Z,6.36
2023-02-03T22:12:54.097Z,6.41
2023-02-03T22:15:22.158Z,6.71
2023-02-03T22:17:51.381Z,6.33
2023-02-03T22:20:21.836Z,6.55
2023-02-03T22:22:51.023Z,6.57
2023-02-03T22:25:19.635Z,6.37
2023-02-03T22:27:52.769Z,6.50
2023-02-03T22:30:24.100Z,6.76
2023-02-03T22:32:53.148Z,6.83
2023-02-03T22:35:23.523Z,6.37
2023-02-03T22:38:02.994Z,6.72
2023-02-03T22:40:32.338Z,6.60
2023-02-03T22:43:01.540Z,6.61
2023-02-03T22:45:30.839Z,6.63
2023-02-03T22:48:02.567Z,6.50
2023-02-03T22:50:35.777Z,6.78
2023-02-03T22:53:06.552Z,6.80
2023-02-03T22:55:39.606Z,6.93
2023-02-03T22:58:11.679Z,6.54
2023-02-03T23:00:39.478Z,6.39
2023-02-03T23:03:07.161Z,6.43
2023-02-03T23:05:35.494Z,6.76
2023-02-03T23:08:04.619Z,6.85
2023-02-03T23:10:33.501Z,6.71
2023-02-03T23:13:08.459Z,6.71
2023-02-03T23:15:38.892Z,6.45
2023-02-03T23:18:07.264Z,6.77
2023-02-03T23:20:39.764Z,6.97
2023-02-03T23:23:07.821Z,6.69
2023-02-03T23:25:37.012Z,6.96
2023-02-03T23:28:05.366Z,6.72
2023-02-03T23:30:37.523Z,6.67
2023-02-03T23:33:06.689Z,6.50
2023-02-03T23:35:49.336Z,6.43
2023-02-03T23:38:18.066Z,6.50
2023-02-03T23:40:47.979Z,6.72
2023-02-03T23:43:16.680Z,6.67
2023-02-03T23:45:44.310Z,6.98
2023-02-03T23:48:12.695Z,6.58
2023-02-03T23:50:42.248Z,6.45
2023-02-03T23:53:10.926Z,6.24
2023-02-03T23:55:40.515Z,6.36
2023-02-03T23:58:08.862Z,6.45
